TimeCST,TemperatureF,Dew PointF,Humidity,Sea Level PressureIn,VisibilityMPH,Wind Direction,Wind SpeedMPH,Gust SpeedMPH,PrecipitationIn,Events,Conditions,WindDirDegrees,DateUTC
12:52 AM,19.9,14.0,78,30.32,10.0,Calm,Calm,-,N/A,,Clear,0,2012-12-21 06:52:00
1:52 AM,16.0,12.0,84,30.33,10.0,Calm,Calm,-,N/A,,Clear,0,2012-12-21 07:52:00
2:52 AM,18.0,12.9,81,30.32,10.0,Calm,Calm,-,N/A,,Clear,0,2012-12-21 08:52:00
3:52 AM,12.9,10.0,88,30.32,10.0,Calm,Calm,-,N/A,,Clear,0,2012-12-21 09:52:00
4:52 AM,14.0,10.9,88,30.32,10.0,Calm,Calm,-,N/A,,Clear,0,2012-12-21 10:52:00
5:52 AM,14.0,10.0,84,30.32,10.0,Calm,Calm,-,N/A,,Clear,0,2012-12-21 11:52:00
6:52 AM,12.0,9.0,88,30.33,10.0,Calm,Calm,-,N/A,,Clear,0,2012-12-21 12:52:00
7:52 AM,14.0,10.0,84,30.34,10.0,Calm,Calm,-,N/A,,Clear,0,2012-12-21 13:52:00
8:52 AM,21.0,16.0,81,30.34,10.0,Calm,Calm,-,N/A,,Clear,0,2012-12-21 14:52:00
9:52 AM,28.9,21.0,72,30.34,10.0,Calm,Calm,-,N/A,,Clear,0,2012-12-21 15:52:00
10:52 AM,36.0,21.0,55,30.33,10.0,Calm,Calm,-,N/A,,Clear,0,2012-12-21 16:52:00
11:52 AM,41.0,19.0,41,30.29,10.0,Calm,Calm,-,N/A,,Clear,0,2012-12-21 17:52:00
12:52 PM,45.0,21.0,39,30.26,10.0,SSE,3.5,-,N/A,,Clear,160,2012-12-21 18:52:00
1:52 PM,46.9,23.0,39,30.24,10.0,SSE,5.8,-,N/A,,Clear,150,2012-12-21 19:52:00
2:52 PM,48.9,23.0,36,30.22,10.0,SSE,4.6,-,N/A,,Clear,150,2012-12-21 20:52:00
3:52 PM,50.0,24.1,36,30.22,10.0,SSE,4.6,-,N/A,,Clear,150,2012-12-21 21:52:00
4:52 PM,46.9,23.0,39,30.22,10.0,SE,3.5,-,N/A,,Clear,130,2012-12-21 22:52:00
5:52 PM,37.9,23.0,55,30.23,10.0,SE,4.6,-,N/A,,Clear,140,2012-12-21 23:52:00
6:52 PM,37.0,21.0,52,30.24,10.0,SSE,4.6,-,N/A,,Clear,150,2012-12-22 00:52:00
7:52 PM,34.0,21.0,59,30.23,10.0,SE,4.6,-,N/A,,Clear,130,2012-12-22 01:52:00
8:52 PM,34.0,19.9,56,30.22,10.0,SE,5.8,-,N/A,,Clear,140,2012-12-22 02:52:00
9:52 PM,33.1,19.9,59,30.20,10.0,SE,5.8,-,N/A,,Clear,130,2012-12-22 03:52:00
10:52 PM,33.1,19.9,59,30.19,10.0,SE,4.6,-,N/A,,Clear,140,2012-12-22 04:52:00
11:52 PM,30.0,19.0,64,30.17,10.0,SE,6.9,-,N/A,,Clear,140,2012-12-22 05:52:00